sensor_id;sensor_type;location;lat;lon;timestamp;pressure;altitude;pressure_sealevel;temperature;humidity
6028;BME280;3042;43.194;27.646;2023-03-01T00:01:30;102666.38;;;14.55;100.00
6028;BME280;3042;43.194;27.646;2023-03-01T00:03:59;102654.00;;;14.66;100.00
6028;BME280;3042;43.194;27.646;2023-03-01T00:06:27;102655.38;;;14.46;100.00
6028;BME280;3042;43.194;27.646;2023-03-01T00:08:54;102518.97;;;13.53;100.00
6028;BME280;3042;43.194;27.646;2023-03-01T00:11:23;102566.63;;;13.82;100.00
6028;BME280;3042;43.194;27.646;2023-03-01T00:13:53;102660.38;;;14.28;100.00
6028;BME280;3042;43.194;27.646;2023-03-01T00:16:22;102662.50;;;14.05;100.00
6028;BME280;3042;43.194;27.646;2023-03-01T00:18:50;102667.19;;;13.69;100.00
6028;BME280;3042;43.194;27.646;2023-03-01T00:21:19;102640.16;;;13.94;100.00
6028;BME280;3042;43.194;27.646;2023-03-01T00:23:46;102661.41;;;14.02;100.00
6028;BME280;3042;43.194;27.646;2023-03-01T00:26:15;102659.75;;;13.89;100.00
6028;BME280;3042;43.194;27.646;2023-03-01T00:28:43;102536.06;;;13.21;100.00
6028;BME280;3042;43.194;27.646;2023-03-01T00:31:13;102528.44;;;13.38;100.00
6028;BME280;3042;43.194;27.646;2023-03-01T00:33:40;102654.97;;;14.10;100.00
6028;BME280;3042;43.194;27.646;2023-03-01T00:36:08;102643.81;;;14.26;100.00
6028;BME280;3042;43.194;27.646;2023-03-01T00:38:38;102630.47;;;14.49;100.00
6028;BME280;3042;43.194;27.646;2023-03-01T00:41:05;102628.09;;;14.39;100.00
6028;BME280;3042;43.194;27.646;2023-03-01T00:43:33;102644.09;;;14.02;100.00
6028;BME280;3042;43.194;27.646;2023-03-01T00:46:02;102642.69;;;14.07;100.00
6028;BME280;3042;43.194;27.646;2023-03-01T00:48:29;102636.94;;;13.98;100.00
6028;BME280;3042;43.194;27.646;2023-03-01T00:50:56;102516.31;;;13.10;100.00
6028;BME280;3042;43.194;27.646;2023-03-01T00:53:24;102619.31;;;13.24;100.00
6028;BME280;3042;43.194;27.646;2023-03-01T00:55:52;102648.75;;;13.25;100.00
6028;BME280;3042;43.194;27.646;2023-03-01T00:58:19;102641.41;;;13.04;100.00
6028;BME280;3042;43.194;27.646;2023-03-01T01:00:46;102642.09;;;13.02;100.00
6028;BME280;3042;43.194;27.646;2023-03-01T01:03:13;102527.13;;;12.50;100.00
6028;BME280;3042;43.194;27.646;2023-03-01T01:05:40;102642.06;;;12.75;100.00
6028;BME280;3042;43.194;27.646;2023-03-01T01:08:07;102559.00;;;12.22;100.00
6028;BME280;3042;43.194;27.646;2023-03-01T01:10:34;102645.63;;;12.64;100.00
6028;BME280;3042;43.194;27.646;2023-03-01T01:13:03;102343.56;;;10.99;100.00
6028;BME280;3042;43.194;27.646;2023-03-01T01:15:33;102602.56;;;12.79;100.00
6028;BME280;3042;43.194;27.646;2023-03-01T01:18:01;102621.69;;;12.55;100.00
6028;BME280;3042;43.194;27.646;2023-03-01T01:20:28;102626.91;;;12.68;100.00
6028;BME280;3042;43.194;27.646;2023-03-01T01:22:55;102626.13;;;12.31;100.00
6028;BME280;3042;43.194;27.646;2023-03-01T01:25:22;102620.31;;;12.86;100.00
6028;BME280;3042;43.194;27.646;2023-03-01T01:27:50;102632.66;;;12.64;100.00
6028;BME280;3042;43.194;27.646;2023-03-01T01:30:19;102625.09;;;12.80;100.00
6028;BME280;3042;43.194;27.646;2023-03-01T01:32:46;102605.59;;;12.34;100.00
6028;BME280;3042;43.194;27.646;2023-03-01T01:35:13;102585.16;;;12.25;100.00
6028;BME280;3042;43.194;27.646;2023-03-01T01:37:40;102629.50;;;12.81;100.00
6028;BME280;3042;43.194;27.646;2023-03-01T01:40:08;102634.69;;;12.68;100.00
6028;BME280;3042;43.194;27.646;2023-03-01T01:42:36;102623.75;;;12.85;100.00
6028;BME280;3042;43.194;27.646;2023-03-01T01:45:28;102614.63;;;12.92;100.00
6028;BME280;3042;43.194;27.646;2023-03-01T01:47:59;102602.94;;;12.45;100.00
6028;BME280;3042;43.194;27.646;2023-03-01T01:50:27;102624.28;;;12.41;100.00
6028;BME280;3042;43.194;27.646;2023-03-01T01:53:06;102610.03;;;13.01;100.00
6028;BME280;3042;43.194;27.646;2023-03-01T01:55:36;102530.69;;;12.12;100.00
6028;BME280;3042;43.194;27.646;2023-03-01T01:58:05;102620.72;;;12.66;100.00
6028;BME280;3042;43.194;27.646;2023-03-01T02:00:37;102625.09;;;12.54;100.00
6028;BME280;3042;43.194;27.646;2023-03-01T02:03:07;102576.44;;;12.11;100.00
6028;BME280;3042;43.194;27.646;2023-03-01T02:05:38;102434.25;;;11.39;100.00
6028;BME280;3042;43.194;27.646;2023-03-01T02:08:10;102626.50;;;12.75;100.00
6028;BME280;3042;43.194;27.646;2023-03-01T02:10:38;102521.31;;;12.00;100.00
6028;BME280;3042;43.194;27.646;2023-03-01T02:13:06;102623.81;;;12.60;100.00
6028;BME280;3042;43.194;27.646;2023-03-01T02:15:34;102621.72;;;12.68;100.00
6028;BME280;3042;43.194;27.646;2023-03-01T02:18:04;102623.22;;;12.64;100.00
6028;BME280;3042;43.194;27.646;2023-03-01T02:20:35;102628.50;;;12.53;100.00
6028;BME280;3042;43.194;27.646;2023-03-01T02:23:07;102629.84;;;12.48;100.00
6028;BME280;3042;43.194;27.646;2023-03-01T02:25:40;102635.66;;;12.57;100.00
6028;BME280;3042;43.194;27.646;2023-03-01T02:28:25;102626.63;;;12.77;100.00
6028;BME280;3042;43.194;27.646;2023-03-01T02:30:53;102598.63;;;11.94;100.00
6028;BME280;3042;43.194;27.646;2023-03-01T02:33:39;102633.22;;;12.33;100.00
6028;BME280;3042;43.194;27.646;2023-03-01T02:36:09;102634.28;;;12.62;100.00
6028;BME280;3042;43.194;27.646;2023-03-01T02:38:39;102530.50;;;11.58;100.00
6028;BME280;3042;43.194;27.646;2023-03-01T02:41:07;102643.44;;;12.43;100.00
6028;BME280;3042;43.194;27.646;2023-03-01T02:43:37;102639.31;;;12.47;100.00
6028;BME280;3042;43.194;27.646;2023-03-01T02:46:06;102638.31;;;12.32;100.00
6028;BME280;3042;43.194;27.646;2023-03-01T02:48:41;102556.78;;;12.01;100.00
6028;BME280;3042;43.194;27.646;2023-03-01T02:51:17;102472.25;;;11.40;100.00
6028;BME280;3042;43.194;27.646;2023-03-01T02:53:55;102495.19;;;11.72;100.00
6028;BME280;3042;43.194;27.646;2023-03-01T02:56:25;102638.44;;;12.46;100.00
6028;BME280;3042;43.194;27.646;2023-03-01T02:58:53;102641.06;;;12.60;100.00
6028;BME280;3042;43.194;27.646;2023-03-01T03:01:26;102641.56;;;12.67;100.00
6028;BME280;3042;43.194;27.646;2023-03-01T03:04:02;102637.84;;;12.64;100.00
6028;BME280;3042;43.194;27.646;2023-03-01T03:06:29;102639.59;;;12.77;100.00
6028;BME280;3042;43.194;27.646;2023-03-01T03:08:56;102632.09;;;12.81;100.00
6028;BME280;3042;43.194;27.646;2023-03-01T03:11:23;102635.00;;;12.86;100.00
6028;BME280;3042;43.194;27.646;2023-03-01T03:13:50;102630.28;;;12.80;100.00
6028;BME280;3042;43.194;27.646;2023-03-01T03:16:19;102627.28;;;12.61;100.00
6028;BME280;3042;43.194;27.646;2023-03-01T03:18:47;102628.66;;;12.42;100.00
6028;BME280;3042;43.194;27.646;2023-03-01T03:21:14;102401.16;;;11.22;100.00
6028;BME280;3042;43.194;27.646;2023-03-01T03:23:41;102642.44;;;12.55;100.00
6028;BME280;3042;43.194;27.646;2023-03-01T03:26:09;102535.31;;;12.42;100.00
6028;BME280;3042;43.194;27.646;2023-03-01T03:28:40;102523.81;;;11.99;100.00
6028;BME280;3042;43.194;27.646;2023-03-01T03:31:08;102635.81;;;12.33;100.00
6028;BME280;3042;43.194;27.646;2023-03-01T03:33:36;102626.75;;;12.40;100.00
6028;BME280;3042;43.194;27.646;2023-03-01T03:36:04;102618.50;;;12.59;100.00
6028;BME280;3042;43.194;27.646;2023-03-01T03:38:32;102630.78;;;12.48;100.00
6028;BME280;3042;43.194;27.646;2023-03-01T03:41:01;102611.31;;;12.55;100.00
6028;BME280;3042;43.194;27.646;2023-03-01T03:43:30;102612.72;;;12.50;100.00
6028;BME280;3042;43.194;27.646;2023-03-01T03:46:14;102508.44;;;11.64;100.00
6028;BME280;3042;43.194;27.646;2023-03-01T03:48:45;102573.41;;;12.30;100.00
6028;BME280;3042;43.194;27.646;2023-03-01T03:51:13;102592.38;;;12.04;100.00
6028;BME280;3042;43.194;27.646;2023-03-01T03:53:40;102492.78;;;11.37;100.00
6028;BME280;3042;43.194;27.646;2023-03-01T03:56:08;102596.13;;;11.84;100.00
6028;BME280;3042;43.194;27.646;2023-03-01T03:58:53;102572.38;;;12.28;100.00
6028;BME280;3042;43.194;27.646;2023-03-01T04:01:20;102584.66;;;11.92;100.00
6028;BME280;3042;43.194;27.646;2023-03-01T04:03:48;102591.56;;;12.05;100.00
6028;BME280;3042;43.194;27.646;2023-03-01T04:06:19;102458.84;;;11.20;100.00
6028;BME280;3042;43.194;27.646;2023-03-01T04:08:47;102590.41;;;11.51;100.00
6028;BME280;3042;43.194;27.646;2023-03-01T04:11:16;102584.13;;;11.73;100.00
6028;BME280;3042;43.194;27.646;2023-03-01T04:13:54;102474.53;;;11.10;100.00
6028;BME280;3042;43.194;27.646;2023-03-01T04:16:22;102467.19;;;11.16;100.00
6028;BME280;3042;43.194;27.646;2023-03-01T04:18:50;102595.78;;;11.91;100.00
6028;BME280;3042;43.194;27.646;2023-03-01T04:21:19;102592.59;;;12.45;100.00
6028;BME280;3042;43.194;27.646;2023-03-01T04:23:46;102605.47;;;12.19;100.00
6028;BME280;3042;43.194;27.646;2023-03-01T04:26:13;102599.34;;;12.43;100.00
6028;BME280;3042;43.194;27.646;2023-03-01T04:28:41;102603.16;;;12.62;100.00
6028;BME280;3042;43.194;27.646;2023-03-01T04:31:12;102584.22;;;12.63;100.00
6028;BME280;3042;43.194;27.646;2023-03-01T04:33:40;102545.81;;;11.92;100.00
6028;BME280;3042;43.194;27.646;2023-03-01T04:36:10;102587.28;;;12.06;100.00
6028;BME280;3042;43.194;27.646;2023-03-01T04:38:39;102365.00;;;10.85;100.00
6028;BME280;3042;43.194;27.646;2023-03-01T04:41:07;102594.69;;;12.13;100.00
6028;BME280;3042;43.194;27.646;2023-03-01T04:43:35;102596.38;;;12.12;100.00
6028;BME280;3042;43.194;27.646;2023-03-01T04:46:03;102598.72;;;11.84;100.00
6028;BME280;3042;43.194;27.646;2023-03-01T04:48:32;102589.84;;;11.92;100.00
6028;BME280;3042;43.194;27.646;2023-03-01T04:50:59;102601.59;;;11.87;100.00
6028;BME280;3042;43.194;27.646;2023-03-01T04:53:28;102596.41;;;11.87;100.00
6028;BME280;3042;43.194;27.646;2023-03-01T04:55:55;102601.34;;;11.47;100.00
6028;BME280;3042;43.194;27.646;2023-03-01T04:58:22;102600.19;;;11.92;100.00
6028;BME280;3042;43.194;27.646;2023-03-01T05:00:50;102593.63;;;11.97;100.00
6028;BME280;3042;43.194;27.646;2023-03-01T05:03:17;101814.31;;;7.30;100.00
6028;BME280;3042;43.194;27.646;2023-03-01T05:05:45;102599.44;;;12.07;100.00
6028;BME280;3042;43.194;27.646;2023-03-01T05:08:13;102476.28;;;11.48;100.00
6028;BME280;3042;43.194;27.646;2023-03-01T05:10:47;102576.34;;;12.10;100.00
6028;BME280;3042;43.194;27.646;2023-03-01T05:13:15;102637.13;;;12.01;100.00
6028;BME280;3042;43.194;27.646;2023-03-01T05:15:46;102493.47;;;11.59;100.00
6028;BME280;3042;43.194;27.646;2023-03-01T05:18:13;102572.72;;;12.08;100.00
6028;BME280;3042;43.194;27.646;2023-03-01T05:20:41;102584.69;;;12.06;100.00
6028;BME280;3042;43.194;27.646;2023-03-01T05:23:08;102503.97;;;11.49;100.00
6028;BME280;3042;43.194;27.646;2023-03-01T05:25:35;102595.50;;;11.75;100.00
6028;BME280;3042;43.194;27.646;2023-03-01T05:28:07;102578.38;;;12.27;100.00
6028;BME280;3042;43.194;27.646;2023-03-01T05:30:37;102439.22;;;11.36;100.00
6028;BME280;3042;43.194;27.646;2023-03-01T05:33:06;102582.78;;;12.41;100.00
6028;BME280;3042;43.194;27.646;2023-03-01T05:35:39;102482.09;;;11.57;100.00
6028;BME280;3042;43.194;27.646;2023-03-01T05:38:06;102460.81;;;11.11;100.00
6028;BME280;3042;43.194;27.646;2023-03-01T05:40:34;102589.38;;;12.36;100.00
6028;BME280;3042;43.194;27.646;2023-03-01T05:43:01;102530.25;;;11.92;100.00
6028;BME280;3042;43.194;27.646;2023-03-01T05:45:32;102593.84;;;12.39;100.00
6028;BME280;3042;43.194;27.646;2023-03-01T05:47:59;102597.38;;;12.14;100.00
6028;BME280;3042;43.194;27.646;2023-03-01T05:50:29;102593.94;;;12.40;100.00
6028;BME280;3042;43.194;27.646;2023-03-01T05:52:58;102192.13;;;10.27;100.00
6028;BME280;3042;43.194;27.646;2023-03-01T05:55:26;102605.13;;;12.39;100.00
6028;BME280;3042;43.194;27.646;2023-03-01T05:57:53;102612.53;;;12.08;100.00
6028;BME280;3042;43.194;27.646;2023-03-01T06:00:21;102609.56;;;12.15;100.00
6028;BME280;3042;43.194;27.646;2023-03-01T06:02:50;102543.88;;;11.65;100.00
6028;BME280;3042;43.194;27.646;2023-03-01T06:05:18;102388.06;;;11.07;100.00
6028;BME280;3042;43.194;27.646;2023-03-01T06:07:48;102614.44;;;12.24;100.00
6028;BME280;3042;43.194;27.646;2023-03-01T06:10:16;102552.63;;;12.03;100.00
6028;BME280;3042;43.194;27.646;2023-03-01T06:12:43;102606.13;;;12.41;100.00
6028;BME280;3042;43.194;27.646;2023-03-01T06:15:14;102590.97;;;12.61;100.00
6028;BME280;3042;43.194;27.646;2023-03-01T06:17:42;102594.84;;;12.54;100.00
6028;BME280;3042;43.194;27.646;2023-03-01T06:20:16;102610.41;;;12.54;100.00
6028;BME280;3042;43.194;27.646;2023-03-01T06:22:43;102293.09;;;10.67;100.00
6028;BME280;3042;43.194;27.646;2023-03-01T06:25:12;102589.41;;;12.76;100.00
6028;BME280;3042;43.194;27.646;2023-03-01T06:27:40;102593.19;;;12.68;100.00
6028;BME280;3042;43.194;27.646;2023-03-01T06:30:10;102550.50;;;12.76;100.00
6028;BME280;3042;43.194;27.646;2023-03-01T06:32:39;102604.63;;;12.45;100.00
6028;BME280;3042;43.194;27.646;2023-03-01T06:35:08;102595.59;;;12.78;100.00
6028;BME280;3042;43.194;27.646;2023-03-01T06:37:39;102461.13;;;12.44;100.00
6028;BME280;3042;43.194;27.646;2023-03-01T06:40:07;102597.38;;;12.79;100.00
6028;BME280;3042;43.194;27.646;2023-03-01T06:42:38;102352.56;;;11.43;100.00
6028;BME280;3042;43.194;27.646;2023-03-01T06:45:06;102606.50;;;12.34;100.00
6028;BME280;3042;43.194;27.646;2023-03-01T06:47:33;102608.09;;;12.32;100.00
6028;BME280;3042;43.194;27.646;2023-03-01T06:50:08;102589.59;;;12.93;100.00
6028;BME280;3042;43.194;27.646;2023-03-01T06:52:37;102557.44;;;13.04;100.00
6028;BME280;3042;43.194;27.646;2023-03-01T06:55:05;102574.16;;;12.81;100.00
6028;BME280;3042;43.194;27.646;2023-03-01T06:57:32;102534.34;;;12.67;100.00
6028;BME280;3042;43.194;27.646;2023-03-01T06:59:59;102586.56;;;13.13;100.00
6028;BME280;3042;43.194;27.646;2023-03-01T07:02:27;102432.38;;;12.55;100.00
6028;BME280;3042;43.194;27.646;2023-03-01T07:04:54;102587.09;;;13.07;100.00
6028;BME280;3042;43.194;27.646;2023-03-01T07:07:21;102586.16;;;13.20;100.00
6028;BME280;3042;43.194;27.646;2023-03-01T07:09:49;102580.78;;;13.44;100.00
6028;BME280;3042;43.194;27.646;2023-03-01T07:12:16;102590.06;;;13.40;100.00
6028;BME280;3042;43.194;27.646;2023-03-01T07:14:43;102601.06;;;13.23;100.00
6028;BME280;3042;43.194;27.646;2023-03-01T07:17:10;102600.31;;;13.52;100.00
6028;BME280;3042;43.194;27.646;2023-03-01T07:19:37;102586.91;;;13.59;100.00
6028;BME280;3042;43.194;27.646;2023-03-01T07:22:06;102601.44;;;13.70;100.00
6028;BME280;3042;43.194;27.646;2023-03-01T07:24:34;102593.41;;;13.81;100.00
6028;BME280;3042;43.194;27.646;2023-03-01T07:27:03;102550.09;;;13.25;100.00
6028;BME280;3042;43.194;27.646;2023-03-01T07:29:30;102600.75;;;13.18;100.00
6028;BME280;3042;43.194;27.646;2023-03-01T07:31:57;102604.94;;;13.16;100.00
6028;BME280;3042;43.194;27.646;2023-03-01T07:34:27;102587.00;;;13.89;100.00
6028;BME280;3042;43.194;27.646;2023-03-01T07:36:55;102443.66;;;13.25;100.00
6028;BME280;3042;43.194;27.646;2023-03-01T07:39:23;102580.34;;;13.79;100.00
6028;BME280;3042;43.194;27.646;2023-03-01T07:41:59;102235.56;;;11.61;100.00
6028;BME280;3042;43.194;27.646;2023-03-01T07:44:30;102590.03;;;13.27;100.00
6028;BME280;3042;43.194;27.646;2023-03-01T07:47:03;101879.59;;;9.11;100.00
6028;BME280;3042;43.194;27.646;2023-03-01T07:51:58;102323.97;;;11.68;100.00
6028;BME280;3042;43.194;27.646;2023-03-01T07:52:59;101947.13;;;8.93;100.00
6028;BME280;3042;43.194;27.646;2023-03-01T07:55:30;102459.16;;;12.27;100.00
6028;BME280;3042;43.194;27.646;2023-03-01T07:57:57;102576.22;;;12.86;100.00
6028;BME280;3042;43.194;27.646;2023-03-01T08:00:26;102576.69;;;13.62;100.00
6028;BME280;3042;43.194;27.646;2023-03-01T08:02:53;102593.06;;;13.46;100.00
6028;BME280;3042;43.194;27.646;2023-03-01T08:05:25;102587.06;;;13.62;100.00
6028;BME280;3042;43.194;27.646;2023-03-01T08:07:52;102594.09;;;13.63;100.00
6028;BME280;3042;43.194;27.646;2023-03-01T08:10:20;102599.44;;;13.25;100.00
6028;BME280;3042;43.194;27.646;2023-03-01T08:12:51;102457.75;;;12.32;100.00
6028;BME280;3042;43.194;27.646;2023-03-01T08:15:25;102526.94;;;12.73;100.00
6028;BME280;3042;43.194;27.646;2023-03-01T08:17:52;102607.97;;;12.96;100.00
6028;BME280;3042;43.194;27.646;2023-03-01T08:20:22;102611.16;;;12.78;100.00
6028;BME280;3042;43.194;27.646;2023-03-01T08:22:49;102606.66;;;12.76;100.00
6028;BME280;3042;43.194;27.646;2023-03-01T08:25:16;102596.75;;;12.97;100.00
6028;BME280;3042;43.194;27.646;2023-03-01T08:27:43;102504.22;;;12.42;100.00
6028;BME280;3042;43.194;27.646;2023-03-01T08:30:29;102441.00;;;12.40;100.00
6028;BME280;3042;43.194;27.646;2023-03-01T08:32:56;102413.94;;;11.83;100.00
6028;BME280;3042;43.194;27.646;2023-03-01T08:35:25;102592.16;;;13.06;100.00
6028;BME280;3042;43.194;27.646;2023-03-01T08:37:52;102592.97;;;13.05;100.00
6028;BME280;3042;43.194;27.646;2023-03-01T08:40:20;102485.25;;;12.30;100.00
6028;BME280;3042;43.194;27.646;2023-03-01T08:42:47;102614.75;;;12.67;100.00
6028;BME280;3042;43.194;27.646;2023-03-01T08:45:15;102604.34;;;12.94;100.00
6028;BME280;3042;43.194;27.646;2023-03-01T08:47:45;102601.56;;;12.91;100.00
6028;BME280;3042;43.194;27.646;2023-03-01T08:50:16;102601.34;;;12.87;100.00
6028;BME280;3042;43.194;27.646;2023-03-01T08:52:48;102614.91;;;12.57;100.00
6028;BME280;3042;43.194;27.646;2023-03-01T08:55:15;102576.03;;;12.70;100.00
6028;BME280;3042;43.194;27.646;2023-03-01T08:57:43;102597.28;;;13.04;100.00
6028;BME280;3042;43.194;27.646;2023-03-01T09:00:16;102531.44;;;12.62;100.00
6028;BME280;3042;43.194;27.646;2023-03-01T09:02:45;102581.56;;;13.43;100.00
6028;BME280;3042;43.194;27.646;2023-03-01T09:05:14;102582.88;;;13.36;100.00
6028;BME280;3042;43.194;27.646;2023-03-01T09:07:41;102576.47;;;13.44;100.00
6028;BME280;3042;43.194;27.646;2023-03-01T09:10:09;102579.63;;;13.54;100.00
6028;BME280;3042;43.194;27.646;2023-03-01T09:12:40;102582.38;;;13.70;100.00
6028;BME280;3042;43.194;27.646;2023-03-01T09:15:11;102573.47;;;13.94;100.00
6028;BME280;3042;43.194;27.646;2023-03-01T09:17:38;102428.34;;;13.43;100.00
6028;BME280;3042;43.194;27.646;2023-03-01T09:20:11;102584.41;;;13.89;100.00
6028;BME280;3042;43.194;27.646;2023-03-01T09:22:40;102583.41;;;13.59;100.00
6028;BME280;3042;43.194;27.646;2023-03-01T09:25:09;102434.09;;;12.96;100.00
6028;BME280;3042;43.194;27.646;2023-03-01T09:27:38;102561.94;;;14.34;100.00
6028;BME280;3042;43.194;27.646;2023-03-01T09:30:13;102460.09;;;13.97;100.00
6028;BME280;3042;43.194;27.646;2023-03-01T09:32:47;102536.56;;;14.60;100.00
6028;BME280;3042;43.194;27.646;2023-03-01T09:35:16;102555.31;;;14.24;100.00
6028;BME280;3042;43.194;27.646;2023-03-01T09:37:56;102430.38;;;13.34;100.00
6028;BME280;3042;43.194;27.646;2023-03-01T09:40:28;102626.72;;;14.01;100.00
6028;BME280;3042;43.194;27.646;2023-03-01T09:43:46;102008.06;;;10.96;100.00
6028;BME280;3042;43.194;27.646;2023-03-01T09:46:45;101668.59;;;8.90;100.00
6028;BME280;3042;43.194;27.646;2023-03-01T09:49:43;101827.34;;;10.05;100.00
6028;BME280;3042;43.194;27.646;2023-03-01T09:52:25;102595.06;;;13.93;100.00
6028;BME280;3042;43.194;27.646;2023-03-01T09:54:56;102528.09;;;13.18;100.00
6028;BME280;3042;43.194;27.646;2023-03-01T09:57:28;102468.91;;;13.41;100.00
6028;BME280;3042;43.194;27.646;2023-03-01T10:00:08;102229.09;;;12.23;100.00
6028;BME280;3042;43.194;27.646;2023-03-01T10:02:42;102561.19;;;14.07;100.00
6028;BME280;3042;43.194;27.646;2023-03-01T10:05:21;102278.94;;;12.75;100.00
6028;BME280;3042;43.194;27.646;2023-03-01T10:08:01;102563.78;;;13.92;100.00
6028;BME280;3042;43.194;27.646;2023-03-01T10:10:34;102582.94;;;13.51;100.00
6028;BME280;3042;43.194;27.646;2023-03-01T10:13:08;102551.97;;;13.54;100.00
6028;BME280;3042;43.194;27.646;2023-03-01T10:15:43;102557.41;;;13.87;100.00
6028;BME280;3042;43.194;27.646;2023-03-01T10:18:27;102222.88;;;12.34;100.00
6028;BME280;3042;43.194;27.646;2023-03-01T10:20:59;102508.50;;;13.94;100.00
6028;BME280;3042;43.194;27.646;2023-03-01T10:23:33;102145.44;;;11.69;100.00
6028;BME280;3042;43.194;27.646;2023-03-01T10:26:19;102176.63;;;11.57;100.00
6028;BME280;3042;43.194;27.646;2023-03-01T10:32:14;102545.97;;;13.98;100.00
6028;BME280;3042;43.194;27.646;2023-03-01T10:34:47;102452.88;;;13.48;100.00
6028;BME280;3042;43.194;27.646;2023-03-01T10:37:16;102276.78;;;12.68;100.00
6028;BME280;3042;43.194;27.646;2023-03-01T10:39:56;102534.50;;;14.09;100.00
6028;BME280;3042;43.194;27.646;2023-03-01T10:42:27;102526.94;;;14.14;100.00
6028;BME280;3042;43.194;27.646;2023-03-01T10:44:55;102514.28;;;14.35;100.00
6028;BME280;3042;43.194;27.646;2023-03-01T10:47:26;102515.13;;;14.34;100.00
6028;BME280;3042;43.194;27.646;2023-03-01T10:49:57;102160.59;;;12.04;100.00
6028;BME280;3042;43.194;27.646;2023-03-01T10:52:28;102415.47;;;13.16;100.00
6028;BME280;3042;43.194;27.646;2023-03-01T10:54:57;102401.41;;;13.70;100.00
6028;BME280;3042;43.194;27.646;2023-03-01T10:57:33;102515.22;;;14.06;100.00
6028;BME280;3042;43.194;27.646;2023-03-01T11:00:22;102507.88;;;14.13;100.00
6028;BME280;3042;43.194;27.646;2023-03-01T11:03:04;102493.25;;;13.86;100.00
6028;BME280;3042;43.194;27.646;2023-03-01T11:05:36;102454.59;;;13.19;100.00
6028;BME280;3042;43.194;27.646;2023-03-01T11:08:04;102459.78;;;13.19;100.00
6028;BME280;3042;43.194;27.646;2023-03-01T11:10:32;102511.97;;;13.65;100.00
6028;BME280;3042;43.194;27.646;2023-03-01T11:13:07;102500.41;;;13.75;100.00
6028;BME280;3042;43.194;27.646;2023-03-01T11:15:38;102322.03;;;12.73;100.00
6028;BME280;3042;43.194;27.646;2023-03-01T11:18:18;102369.91;;;13.21;100.00
6028;BME280;3042;43.194;27.646;2023-03-01T11:20:46;102517.91;;;13.08;100.00
6028;BME280;3042;43.194;27.646;2023-03-01T11:23:14;102482.22;;;13.60;100.00
6028;BME280;3042;43.194;27.646;2023-03-01T11:25:46;102422.59;;;13.05;100.00
6028;BME280;3042;43.194;27.646;2023-03-01T11:28:19;102073.38;;;11.07;100.00
6028;BME280;3042;43.194;27.646;2023-03-01T11:30:59;102190.31;;;11.83;100.00
6028;BME280;3042;43.194;27.646;2023-03-01T11:33:36;102457.56;;;13.83;100.00
6028;BME280;3042;43.194;27.646;2023-03-01T11:36:11;102463.50;;;13.66;100.00
6028;BME280;3042;43.194;27.646;2023-03-01T11:38:40;102410.50;;;13.06;100.00
6028;BME280;3042;43.194;27.646;2023-03-01T11:41:14;102345.56;;;12.48;100.00
6028;BME280;3042;43.194;27.646;2023-03-01T11:43:49;102313.38;;;12.44;100.00
6028;BME280;3042;43.194;27.646;2023-03-01T11:46:46;102406.56;;;12.98;100.00
6028;BME280;3042;43.194;27.646;2023-03-01T11:49:41;102438.41;;;13.96;100.00
6028;BME280;3042;43.194;27.646;2023-03-01T11:52:21;102459.56;;;13.72;100.00
6028;BME280;3042;43.194;27.646;2023-03-01T11:55:02;102452.38;;;13.68;100.00
6028;BME280;3042;43.194;27.646;2023-03-01T11:57:49;102437.31;;;13.92;100.00
6028;BME280;3042;43.194;27.646;2023-03-01T12:00:30;102440.75;;;13.91;100.00
6028;BME280;3042;43.194;27.646;2023-03-01T12:06:26;102316.00;;;13.60;100.00
6028;BME280;3042;43.194;27.646;2023-03-01T12:09:02;102415.34;;;14.48;100.00
6028;BME280;3042;43.194;27.646;2023-03-01T12:11:56;102424.41;;;14.24;100.00
6028;BME280;3042;43.194;27.646;2023-03-01T12:14:46;102412.19;;;14.38;100.00
6028;BME280;3042;43.194;27.646;2023-03-01T12:17:34;102387.28;;;14.11;100.00
6028;BME280;3042;43.194;27.646;2023-03-01T12:22:59;102402.50;;;14.51;100.00
6028;BME280;3042;43.194;27.646;2023-03-01T12:25:35;102377.81;;;14.43;100.00
6028;BME280;3042;43.194;27.646;2023-03-01T12:28:18;102399.03;;;14.98;100.00
6028;BME280;3042;43.194;27.646;2023-03-01T12:31:01;102398.13;;;14.98;100.00
6028;BME280;3042;43.194;27.646;2023-03-01T12:33:43;102399.19;;;15.02;100.00
6028;BME280;3042;43.194;27.646;2023-03-01T12:36:34;102278.16;;;14.44;100.00
6028;BME280;3042;43.194;27.646;2023-03-01T12:39:19;102406.72;;;14.64;100.00
6028;BME280;3042;43.194;27.646;2023-03-01T12:41:59;102364.13;;;14.31;100.00
6028;BME280;3042;43.194;27.646;2023-03-01T12:44:48;102366.16;;;14.05;100.00
6028;BME280;3042;43.194;27.646;2023-03-01T12:47:44;102402.91;;;14.57;100.00
6028;BME280;3042;43.194;27.646;2023-03-01T12:50:20;102372.91;;;13.87;100.00
6028;BME280;3042;43.194;27.646;2023-03-01T12:52:51;102426.59;;;13.86;100.00
6028;BME280;3042;43.194;27.646;2023-03-01T12:55:28;102284.38;;;13.38;100.00
6028;BME280;3042;43.194;27.646;2023-03-01T12:58:03;102261.97;;;13.55;100.00
6028;BME280;3042;43.194;27.646;2023-03-01T13:00:38;102103.72;;;12.21;100.00
6028;BME280;3042;43.194;27.646;2023-03-01T13:03:16;102405.38;;;14.25;100.00
6028;BME280;3042;43.194;27.646;2023-03-01T13:05:58;102394.94;;;14.54;100.00
6028;BME280;3042;43.194;27.646;2023-03-01T13:08:33;102051.34;;;12.12;100.00
6028;BME280;3042;43.194;27.646;2023-03-01T13:11:06;102399.13;;;14.52;100.00
6028;BME280;3042;43.194;27.646;2023-03-01T13:13:38;102325.78;;;13.81;100.00
6028;BME280;3042;43.194;27.646;2023-03-01T13:16:39;102394.13;;;14.88;100.00
6028;BME280;3042;43.194;27.646;2023-03-01T13:19:11;102380.16;;;15.03;100.00
6028;BME280;3042;43.194;27.646;2023-03-01T13:21:39;102393.50;;;14.92;100.00
6028;BME280;3042;43.194;27.646;2023-03-01T13:24:24;102332.94;;;14.31;100.00